Time;durP1;ratioP1;P1;durP2;ratioP2;P2;SDS_P1;SDS_P2;PMS_P1;PMS_P2;Temp;Humidity;BMP_temperature;BMP_pressure;BME280_temperature;BME280_humidity;BME280_pressure;Samples;Min_cycle;Max_cycle;Signal;HPM_P1;HPM_P2
2023/03/10 00:00:38;;;;;;;25.48;17.42;;;1.80;99.90;;;;;;5034774;28;20443;-69
2023/03/10 00:03:03;;;;;;;23.75;17.63;;;1.80;99.90;;;;;;5024050;28;20057;-70
2023/03/10 00:05:29;;;;;;;22.50;16.83;;;1.80;99.90;;;;;;5019526;28;20037;-69
2023/03/10 00:07:55;;;;;;;24.42;16.90;;;1.80;99.90;;;;;;5031848;28;20566;-70
2023/03/10 00:10:21;;;;;;;23.95;17.17;;;1.80;99.90;;;;;;5028565;28;20045;-70
2023/03/10 00:12:47;;;;;;;22.83;16.70;;;1.80;99.90;;;;;;5023203;28;20239;-70
2023/03/10 00:15:13;;;;;;;21.48;16.20;;;1.80;99.90;;;;;;5041149;28;20387;-68
2023/03/10 00:17:39;;;;;;;22.23;16.25;;;1.80;99.90;;;;;;5030954;28;20048;-69
2023/03/10 00:20:10;;;;;;;22.92;16.33;;;1.70;99.90;;;;;;5042647;28;20056;-69
2023/03/10 00:22:40;;;;;;;22.55;15.20;;;1.70;99.90;;;;;;5033482;28;20045;-67
2023/03/10 00:25:07;;;;;;;22.17;16.35;;;1.70;99.90;;;;;;5029867;28;20054;-67
2023/03/10 00:27:33;;;;;;;21.88;16.60;;;1.70;99.90;;;;;;5031722;28;20041;-67
2023/03/10 00:29:58;;;;;;;20.50;15.15;;;1.70;99.90;;;;;;5031388;28;20097;-67
2023/03/10 00:32:24;;;;;;;19.98;15.32;;;1.70;99.90;;;;;;5030561;28;20416;-67
2023/03/10 00:34:50;;;;;;;21.75;15.48;;;1.70;99.90;;;;;;5030380;28;20052;-67
2023/03/10 00:37:15;;;;;;;21.10;15.65;;;1.70;99.90;;;;;;5025971;28;20053;-67
2023/03/10 00:39:41;;;;;;;20.50;15.32;;;1.80;99.90;;;;;;5033558;28;20038;-67
2023/03/10 00:42:06;;;;;;;21.00;15.65;;;1.70;99.90;;;;;;5023480;28;20524;-67
2023/03/10 00:44:32;;;;;;;19.05;14.65;;;1.80;99.90;;;;;;5029984;28;20077;-67
2023/03/10 00:46:58;;;;;;;21.42;16.00;;;1.80;99.90;;;;;;5024565;28;20056;-67
2023/03/10 00:49:23;;;;;;;21.58;15.02;;;1.70;99.90;;;;;;5026008;28;20041;-67
2023/03/10 00:51:49;;;;;;;20.40;14.93;;;1.80;99.90;;;;;;5029206;28;20037;-67
2023/03/10 00:54:18;;;;;;;22.13;14.98;;;1.80;99.90;;;;;;5018013;28;20077;-67
2023/03/10 00:56:43;;;;;;;20.58;14.85;;;1.80;99.90;;;;;;5017196;28;20042;-68
2023/03/10 00:59:11;;;;;;;21.60;15.20;;;1.80;99.90;;;;;;5028154;28;20098;-67
2023/03/10 01:01:39;;;;;;;19.13;14.10;;;1.80;99.90;;;;;;5032256;28;20056;-68
2023/03/10 01:04:08;;;;;;;19.73;14.73;;;1.80;99.90;;;;;;5032120;28;20045;-67
2023/03/10 01:06:35;;;;;;;19.40;14.20;;;1.80;99.90;;;;;;5025671;28;20067;-67
2023/03/10 01:09:05;;;;;;;19.67;14.73;;;1.80;99.90;;;;;;5035136;28;20539;-68
2023/03/10 01:11:48;;;;;;;18.80;14.68;;;1.80;99.90;;;;;;5030550;28;20409;-68
2023/03/10 01:14:15;;;;;;;19.38;14.25;;;1.70;99.90;;;;;;5031492;28;20034;-67
2023/03/10 01:16:41;;;;;;;19.27;14.85;;;1.80;99.90;;;;;;5025153;28;20060;-67
2023/03/10 01:19:07;;;;;;;19.38;14.63;;;1.80;99.90;;;;;;5013134;28;20050;-67
2023/03/10 01:21:37;;;;;;;18.52;13.82;;;1.80;99.90;;;;;;5013578;28;20061;-67
2023/03/10 01:24:04;;;;;;;19.52;13.68;;;1.80;99.90;;;;;;5019121;28;20084;-67
2023/03/10 01:26:30;;;;;;;19.75;14.63;;;1.80;99.90;;;;;;5027759;28;20056;-67
2023/03/10 01:28:56;;;;;;;19.45;13.73;;;1.80;99.90;;;;;;5032198;28;20049;-67
2023/03/10 01:31:22;;;;;;;19.45;13.63;;;1.80;99.90;;;;;;5030638;28;20073;-67
2023/03/10 01:33:48;;;;;;;16.80;13.05;;;1.80;99.90;;;;;;5027555;28;20568;-67
2023/03/10 01:36:19;;;;;;;17.75;13.55;;;1.80;99.90;;;;;;5023608;28;20050;-68
2023/03/10 01:38:47;;;;;;;18.75;13.43;;;1.80;99.90;;;;;;5012366;28;20042;-67
2023/03/10 01:41:13;;;;;;;;;;;1.80;99.90;;;;;;5029659;28;20091;-67
2023/03/10 01:43:41;;;;;;;17.27;13.05;;;1.80;99.90;;;;;;5026201;28;20319;-67
2023/03/10 01:46:30;;;;;;;17.92;13.38;;;1.80;99.90;;;;;;5030578;28;20051;-67
2023/03/10 01:49:01;;;;;;;16.58;12.70;;;1.80;99.90;;;;;;5024773;28;20465;-67
2023/03/10 01:51:30;;;;;;;17.17;12.25;;;1.80;99.90;;;;;;5026810;28;20067;-67
2023/03/10 01:53:56;;;;;;;15.48;11.55;;;1.80;99.90;;;;;;5021838;28;20049;-67
2023/03/10 01:56:22;;;;;;;17.65;13.10;;;1.80;99.90;;;;;;5031850;28;20037;-67
2023/03/10 01:58:49;;;;;;;16.63;12.23;;;1.80;99.90;;;;;;5032208;28;20037;-67
2023/03/10 02:01:16;;;;;;;17.15;12.65;;;1.80;99.90;;;;;;5028157;28;20088;-67
2023/03/10 02:03:55;;;;;;;15.70;12.27;;;1.70;99.90;;;;;;5018334;28;20435;-67
2023/03/10 02:06:22;;;;;;;16.70;13.07;;;1.80;99.90;;;;;;5031035;28;20057;-67
2023/03/10 02:08:55;;;;;;;17.15;12.48;;;1.70;99.90;;;;;;5030176;28;20081;-67
2023/03/10 02:11:20;;;;;;;16.02;12.30;;;1.80;99.90;;;;;;5028283;28;21093;-67
2023/03/10 02:13:46;;;;;;;18.27;13.40;;;1.80;99.90;;;;;;5026027;28;20057;-67
2023/03/10 02:16:13;;;;;;;19.15;15.20;;;1.70;99.90;;;;;;5026991;28;20450;-67
2023/03/10 02:18:42;;;;;;;18.10;13.90;;;1.70;99.90;;;;;;5024703;28;20056;-67
2023/03/10 02:21:27;;;;;;;18.02;14.05;;;1.70;99.90;;;;;;5029810;28;20048;-67
2023/03/10 02:24:21;;;;;;;19.08;14.90;;;1.70;99.90;;;;;;5022995;28;20422;-67
2023/03/10 02:26:59;;;;;;;18.63;14.80;;;1.70;99.90;;;;;;5029339;28;20037;-67
2023/03/10 02:29:51;;;;;;;18.15;13.93;;;1.70;99.90;;;;;;5028938;28;20492;-67
2023/03/10 02:32:18;;;;;;;18.30;13.43;;;1.70;99.90;;;;;;5025168;28;20115;-67
2023/03/10 02:34:46;;;;;;;18.15;13.88;;;1.70;99.90;;;;;;5031442;28;20064;-67
2023/03/10 02:37:25;;;;;;;18.90;14.68;;;1.70;99.90;;;;;;5026314;28;20061;-67
2023/03/10 02:39:50;;;;;;;18.50;13.73;;;1.70;99.90;;;;;;5028700;28;20049;-67
2023/03/10 02:42:17;;;;;;;17.92;14.15;;;1.70;99.90;;;;;;5029976;28;20103;-67
2023/03/10 02:44:45;;;;;;;19.65;14.80;;;1.70;99.90;;;;;;5020809;28;20042;-67
2023/03/10 02:47:11;;;;;;;19.33;14.23;;;1.70;99.90;;;;;;5027856;28;20041;-67
2023/03/10 02:49:37;;;;;;;19.33;14.15;;;1.70;99.90;;;;;;5022240;28;20408;-67
2023/03/10 02:52:08;;;;;;;18.27;13.88;;;1.70;99.90;;;;;;5027641;28;20049;-67
2023/03/10 02:54:34;;;;;;;19.33;14.77;;;1.70;99.90;;;;;;5029252;28;20485;-67
2023/03/10 02:57:07;;;;;;;20.58;15.60;;;1.70;99.90;;;;;;5027064;28;20057;-66
2023/03/10 02:59:33;;;;;;;20.45;15.52;;;1.70;99.90;;;;;;5024337;28;20041;-67
2023/03/10 03:01:59;;;;;;;20.50;15.15;;;1.70;99.90;;;;;;5024248;28;20049;-67
2023/03/10 03:04:25;;;;;;;22.45;16.23;;;1.70;99.90;;;;;;5025115;28;20073;-67
2023/03/10 03:06:50;;;;;;;21.40;15.30;;;1.60;99.90;;;;;;5023268;28;20087;-67
2023/03/10 03:09:16;;;;;;;20.20;15.10;;;1.60;99.90;;;;;;5023042;28;20046;-66
2023/03/10 03:11:42;;;;;;;19.73;14.40;;;1.60;99.90;;;;;;5025487;28;20412;-67
2023/03/10 03:14:10;;;;;;;18.67;13.70;;;1.60;99.90;;;;;;5029495;28;20103;-67
2023/03/10 03:16:36;;;;;;;18.20;13.70;;;1.60;99.90;;;;;;5028645;28;20054;-67
2023/03/10 03:19:02;;;;;;;18.08;12.65;;;1.60;99.90;;;;;;5023903;28;20103;-67
2023/03/10 03:21:27;;;;;;;19.13;13.05;;;1.60;99.90;;;;;;5021246;28;20644;-67
2023/03/10 03:23:53;;;;;;;17.88;12.43;;;1.60;99.90;;;;;;5021667;28;20056;-67
2023/03/10 03:26:21;;;;;;;19.25;13.98;;;1.60;99.90;;;;;;5027471;28;20041;-67
2023/03/10 03:28:48;;;;;;;18.02;12.65;;;1.60;99.90;;;;;;5048268;28;20053;-66
2023/03/10 03:31:23;;;;;;;19.00;12.98;;;1.60;99.90;;;;;;5031297;28;20050;-67
2023/03/10 03:33:49;;;;;;;17.48;12.98;;;1.60;99.90;;;;;;5028492;28;20484;-67
2023/03/10 03:36:14;;;;;;;17.02;12.60;;;1.50;99.90;;;;;;5020133;28;20041;-67
2023/03/10 03:38:40;;;;;;;19.40;14.10;;;1.60;99.90;;;;;;5033120;28;20038;-67
2023/03/10 03:41:07;;;;;;;19.38;14.23;;;1.60;99.90;;;;;;5030061;28;20037;-66
2023/03/10 03:43:33;;;;;;;17.77;13.10;;;1.60;99.90;;;;;;5032859;28;20397;-67
2023/03/10 03:45:59;;;;;;;18.52;13.30;;;1.50;99.90;;;;;;5033214;28;20411;-67
2023/03/10 03:48:24;;;;;;;17.75;13.25;;;1.50;99.90;;;;;;5033474;28;20077;-66
2023/03/10 03:50:50;;;;;;;18.15;13.60;;;1.50;99.90;;;;;;5028792;28;20052;-67
2023/03/10 03:53:16;;;;;;;21.30;14.25;;;1.50;99.90;;;;;;5016686;28;20053;-66
2023/03/10 03:55:42;;;;;;;19.92;13.48;;;1.50;99.90;;;;;;5027760;28;20041;-66
2023/03/10 03:58:07;;;;;;;18.27;13.55;;;1.50;99.90;;;;;;5034440;28;20480;-66
2023/03/10 04:00:34;;;;;;;20.48;14.75;;;1.50;99.90;;;;;;5030311;28;20045;-66
2023/03/10 04:03:00;;;;;;;19.17;14.10;;;1.50;99.90;;;;;;5017892;28;20050;-66
2023/03/10 04:05:26;;;;;;;21.73;15.60;;;1.50;99.90;;;;;;5030857;28;20132;-66
2023/03/10 04:07:52;;;;;;;22.20;16.48;;;1.50;99.90;;;;;;5020487;28;20128;-67
2023/03/10 04:10:20;;;;;;;23.25;16.45;;;1.50;99.90;;;;;;5027112;28;20049;-66
2023/03/10 04:12:46;;;;;;;23.05;17.35;;;1.50;99.90;;;;;;5032860;28;21307;-67
2023/03/10 04:15:12;;;;;;;23.92;17.52;;;1.50;99.90;;;;;;5053254;28;20048;-67
2023/03/10 04:17:38;;;;;;;23.90;18.38;;;1.50;99.90;;;;;;5030990;28;20061;-67
2023/03/10 04:20:07;;;;;;;25.17;18.80;;;1.50;99.90;;;;;;5031396;28;20046;-66
2023/03/10 04:22:33;;;;;;;25.17;18.30;;;1.50;99.90;;;;;;5028664;28;20045;-67
2023/03/10 04:24:59;;;;;;;25.08;19.15;;;1.60;99.90;;;;;;5032087;28;20132;-67
2023/03/10 04:27:25;;;;;;;24.00;18.55;;;1.50;99.90;;;;;;5022874;28;20125;-66
2023/03/10 04:29:50;;;;;;;24.08;18.98;;;1.60;99.90;;;;;;5028767;28;20460;-67
2023/03/10 04:32:16;;;;;;;23.35;17.40;;;1.50;99.90;;;;;;5025657;28;20519;-67
2023/03/10 04:34:42;;;;;;;23.92;18.13;;;1.50;99.90;;;;;;5028960;28;20037;-67
2023/03/10 04:37:07;;;;;;;23.48;17.80;;;1.60;99.90;;;;;;5027535;28;20481;-66
2023/03/10 04:39:34;;;;;;;26.95;18.52;;;1.60;99.90;;;;;;5029878;28;20115;-67
2023/03/10 04:42:00;;;;;;;23.10;17.63;;;1.60;99.90;;;;;;5021777;28;20151;-66
2023/03/10 04:44:25;;;;;;;24.35;17.77;;;1.60;99.90;;;;;;5029528;28;20045;-67
2023/03/10 04:46:51;;;;;;;24.02;16.83;;;1.60;99.90;;;;;;5024764;28;20512;-67
2023/03/10 04:49:19;;;;;;;22.48;16.83;;;1.60;99.90;;;;;;5030327;28;20092;-67
2023/03/10 04:51:45;;;;;;;23.08;16.27;;;1.60;99.90;;;;;;5025851;28;20037;-67
2023/03/10 04:54:10;;;;;;;23.23;16.40;;;1.60;99.90;;;;;;5032833;28;20493;-66
2023/03/10 04:56:36;;;;;;;22.73;15.48;;;1.60;99.90;;;;;;5029466;28;20392;-66
2023/03/10 04:59:02;;;;;;;21.40;15.07;;;1.60;99.90;;;;;;5030955;28;20148;-67
2023/03/10 05:01:32;;;;;;;20.85;15.68;;;1.60;99.90;;;;;;5016476;28;20045;-67
2023/03/10 05:04:02;;;;;;;20.00;14.35;;;1.60;99.90;;;;;;5025198;28;20089;-67
2023/03/10 05:06:29;;;;;;;21.20;14.40;;;1.60;99.90;;;;;;5027491;28;20057;-66
2023/03/10 05:08:54;;;;;;;19.75;14.43;;;1.50;99.90;;;;;;5030186;28;20560;-66
2023/03/10 05:11:20;;;;;;;19.50;15.13;;;1.50;99.90;;;;;;5024209;28;20049;-67
2023/03/10 05:13:46;;;;;;;21.23;15.60;;;1.50;99.90;;;;;;5032253;28;20510;-67
2023/03/10 05:16:19;;;;;;;20.20;14.70;;;1.50;99.90;;;;;;5030454;28;20120;-67
2023/03/10 05:18:46;;;;;;;18.38;14.82;;;1.50;99.90;;;;;;5021848;28;20041;-67
2023/03/10 05:21:12;;;;;;;19.33;14.20;;;1.50;99.90;;;;;;5037609;28;20072;-66
2023/03/10 05:23:38;;;;;;;19.08;14.63;;;1.50;99.90;;;;;;5030740;28;20420;-66
2023/03/10 05:26:05;;;;;;;19.73;13.85;;;1.50;99.90;;;;;;5029894;28;20053;-66
2023/03/10 05:28:31;;;;;;;18.35;14.50;;;1.50;99.90;;;;;;5047967;28;20049;-67
2023/03/10 05:30:57;;;;;;;19.00;14.65;;;1.50;99.90;;;;;;5042462;28;20047;-67
2023/03/10 05:33:22;;;;;;;18.88;14.52;;;1.50;99.90;;;;;;5029330;28;20041;-67
2023/03/10 05:35:48;;;;;;;16.23;13.68;;;1.50;99.90;;;;;;5028316;28;20496;-66
2023/03/10 05:38:14;;;;;;;18.50;14.73;;;1.50;99.90;;;;;;5025760;28;20450;-67
2023/03/10 05:40:40;;;;;;;18.60;14.23;;;1.50;99.90;;;;;;5032453;28;20046;-66
2023/03/10 05:43:06;;;;;;;16.73;12.65;;;1.60;99.90;;;;;;5031327;28;20091;-67
2023/03/10 05:45:32;;;;;;;16.83;12.82;;;1.60;99.90;;;;;;5031267;28;20045;-66
2023/03/10 05:47:57;;;;;;;16.77;12.88;;;1.60;99.90;;;;;;5027440;28;20041;-66
2023/03/10 05:50:23;;;;;;;15.43;11.93;;;1.60;99.90;;;;;;5028135;28;20447;-66
2023/03/10 05:52:49;;;;;;;17.33;12.18;;;1.60;99.90;;;;;;5033705;28;20091;-67
2023/03/10 05:55:18;;;;;;;15.00;11.80;;;1.60;99.90;;;;;;5031234;28;20048;-66
2023/03/10 05:57:44;;;;;;;16.63;12.18;;;1.60;99.90;;;;;;5022846;28;20742;-67
2023/03/10 06:00:12;;;;;;;15.05;11.57;;;1.60;99.90;;;;;;5014389;28;20503;-66
2023/03/10 06:02:38;;;;;;;15.32;11.57;;;1.60;99.90;;;;;;5021440;28;20053;-67
2023/03/10 06:05:06;;;;;;;15.65;12.02;;;1.60;99.90;;;;;;5028808;28;20041;-67
2023/03/10 06:07:32;;;;;;;15.13;12.18;;;1.60;99.90;;;;;;5026643;28;20049;-66
2023/03/10 06:09:58;;;;;;;17.50;12.73;;;1.60;99.90;;;;;;5024585;28;20052;-67
2023/03/10 06:12:24;;;;;;;15.55;12.00;;;1.60;99.90;;;;;;5033179;28;20052;-67
2023/03/10 06:14:49;;;;;;;15.48;11.90;;;1.60;99.90;;;;;;5050847;28;20132;-67
2023/03/10 06:17:15;;;;;;;16.77;11.95;;;1.60;99.90;;;;;;5036174;28;20045;-67
2023/03/10 06:19:41;;;;;;;16.10;12.27;;;1.60;99.90;;;;;;5028331;28;20037;-66
2023/03/10 06:22:06;;;;;;;17.40;12.55;;;1.60;99.90;;;;;;5035666;28;20186;-66
2023/03/10 06:24:32;;;;;;;16.33;12.35;;;1.60;99.90;;;;;;5026674;28;20524;-66
2023/03/10 06:26:58;;;;;;;16.45;12.57;;;1.70;99.90;;;;;;5014483;28;20046;-66
2023/03/10 06:29:23;;;;;;;15.95;12.23;;;1.60;99.90;;;;;;5018258;28;20038;-67
2023/03/10 06:31:49;;;;;;;15.38;11.90;;;1.70;99.90;;;;;;5031842;28;20124;-67
2023/03/10 06:34:15;;;;;;;14.80;11.63;;;1.70;99.90;;;;;;5021294;28;20106;-66
2023/03/10 06:36:41;;;;;;;15.15;11.48;;;1.60;99.90;;;;;;5036928;28;20041;-67
2023/03/10 06:39:07;;;;;;;16.02;12.18;;;1.70;99.90;;;;;;5028894;28;20542;-66
2023/03/10 06:41:34;;;;;;;16.60;12.18;;;1.60;99.90;;;;;;5025599;28;20046;-66
2023/03/10 06:44:00;;;;;;;15.93;11.45;;;1.60;99.90;;;;;;5026816;28;20057;-67
2023/03/10 06:46:25;;;;;;;16.55;11.88;;;1.60;99.90;;;;;;5027663;28;20057;-67
2023/03/10 06:48:51;;;;;;;15.88;12.18;;;1.70;99.90;;;;;;5029708;28;20049;-68
2023/03/10 06:51:19;;;;;;;17.83;12.65;;;1.70;99.90;;;;;;5020903;28;20049;-67
2023/03/10 06:53:45;;;;;;;16.30;11.70;;;1.70;99.90;;;;;;5020855;28;20366;-67
2023/03/10 06:56:15;;;;;;;14.63;10.93;;;1.70;99.90;;;;;;5028743;28;20046;-67
2023/03/10 06:58:41;;;;;;;14.70;11.07;;;1.70;99.90;;;;;;5026849;28;20489;-68
2023/03/10 07:01:07;;;;;;;16.52;12.55;;;1.70;99.90;;;;;;5028333;28;20075;-68
2023/03/10 07:03:34;;;;;;;16.40;11.90;;;1.70;99.90;;;;;;5028470;28;20509;-67
2023/03/10 07:05:59;;;;;;;17.40;12.20;;;1.70;99.90;;;;;;5016148;28;20115;-67
2023/03/10 07:08:28;;;;;;;17.08;12.68;;;1.70;99.90;;;;;;5020268;28;20068;-67
2023/03/10 07:10:55;;;;;;;15.95;11.73;;;1.80;99.90;;;;;;5019156;28;20168;-68
2023/03/10 07:13:21;;;;;;;15.60;11.35;;;1.70;99.90;;;;;;5026976;28;20045;-67
2023/03/10 07:15:47;;;;;;;16.80;12.07;;;1.80;99.90;;;;;;5025324;28;20046;-68
2023/03/10 07:18:13;;;;;;;16.13;12.15;;;1.80;99.90;;;;;;5023298;28;20447;-68
2023/03/10 07:20:41;;;;;;;15.88;12.02;;;1.80;99.90;;;;;;5028084;28;20033;-67
2023/03/10 07:23:07;;;;;;;15.85;12.02;;;1.80;99.90;;;;;;5027469;28;20049;-68
2023/03/10 07:25:36;;;;;;;16.40;12.80;;;1.80;99.90;;;;;;5025815;28;20049;-67
2023/03/10 07:28:03;;;;;;;16.50;12.48;;;1.80;99.90;;;;;;5027858;28;20045;-67
2023/03/10 07:30:28;;;;;;;16.35;12.65;;;1.80;99.90;;;;;;5021937;28;20073;-67
2023/03/10 07:32:54;;;;;;;17.77;12.48;;;1.80;99.90;;;;;;5025454;28;20162;-66
2023/03/10 07:35:19;;;;;;;17.65;12.75;;;1.80;99.90;;;;;;5029799;28;20041;-67
2023/03/10 07:37:45;;;;;;;17.20;13.05;;;1.80;99.90;;;;;;5028314;28;20052;-68
2023/03/10 07:40:11;;;;;;;17.42;13.55;;;1.80;99.90;;;;;;5027781;28;20049;-68
2023/03/10 07:42:37;;;;;;;15.75;12.75;;;1.90;99.90;;;;;;5015501;28;20038;-67
2023/03/10 07:45:03;;;;;;;17.50;12.75;;;1.90;99.90;;;;;;5020808;28;20052;-67
2023/03/10 07:47:30;;;;;;;18.00;13.97;;;1.90;99.90;;;;;;5025778;28;20184;-67
2023/03/10 07:49:55;;;;;;;17.83;13.80;;;1.90;99.90;;;;;;5028029;28;20766;-67
2023/03/10 07:52:21;;;;;;;19.48;14.73;;;1.90;99.90;;;;;;5028892;28;20041;-67
2023/03/10 07:54:47;;;;;;;21.35;16.13;;;1.80;99.90;;;;;;5026656;28;20045;-68
2023/03/10 07:57:13;;;;;;;20.85;16.05;;;1.90;99.90;;;;;;5017886;28;20045;-67
2023/03/10 07:59:40;;;;;;;20.88;16.33;;;1.80;99.90;;;;;;5008227;28;20049;-67
2023/03/10 08:02:06;;;;;;;21.90;16.90;;;1.90;99.90;;;;;;5024516;28;20045;-68
2023/03/10 08:04:32;;;;;;;22.52;17.63;;;1.90;99.90;;;;;;5023145;28;20076;-68
2023/03/10 08:07:00;;;;;;;21.60;17.02;;;1.90;99.90;;;;;;5021792;28;20089;-67
2023/03/10 08:09:28;;;;;;;22.35;17.73;;;2.00;99.90;;;;;;5021573;28;20535;-68
2023/03/10 08:11:54;;;;;;;22.95;18.25;;;2.00;99.90;;;;;;5027582;28;20055;-68
2023/03/10 08:14:22;;;;;;;22.35;17.23;;;2.00;99.90;;;;;;5024717;28;20056;-68
2023/03/10 08:16:49;;;;;;;22.73;17.58;;;2.00;99.90;;;;;;5016908;28;20045;-68
2023/03/10 08:19:14;;;;;;;21.92;17.15;;;2.00;99.90;;;;;;5027520;28;20626;-67
2023/03/10 08:21:40;;;;;;;21.92;17.08;;;2.00;99.90;;;;;;5023645;28;20037;-68
2023/03/10 08:24:06;;;;;;;23.63;18.92;;;2.00;99.90;;;;;;5026635;28;20087;-69
2023/03/10 08:26:31;;;;;;;22.98;17.13;;;2.00;99.90;;;;;;5025378;28;20053;-70
2023/03/10 08:28:57;;;;;;;24.33;17.77;;;2.00;99.90;;;;;;5028451;28;20037;-68
2023/03/10 08:31:23;;;;;;;23.38;17.42;;;2.00;99.90;;;;;;5023750;28;20044;-71
2023/03/10 08:33:49;;;;;;;22.80;17.58;;;2.00;99.90;;;;;;5023655;28;20033;-67
2023/03/10 08:36:19;;;;;;;22.92;18.30;;;2.00;99.90;;;;;;5026546;28;20045;-68
2023/03/10 08:38:45;;;;;;;21.50;17.15;;;2.10;99.90;;;;;;5027586;28;20045;-69
2023/03/10 08:41:25;;;;;;;23.42;18.52;;;2.00;99.90;;;;;;5030669;28;20124;-69
2023/03/10 08:43:52;;;;;;;21.80;17.33;;;2.10;99.90;;;;;;5026204;28;20397;-69
2023/03/10 08:46:19;;;;;;;23.02;18.02;;;2.10;99.90;;;;;;5032185;28;20049;-70
2023/03/10 08:48:46;;;;;;;23.80;18.40;;;2.10;99.90;;;;;;5029972;28;20146;-70
2023/03/10 08:51:12;;;;;;;23.57;19.57;;;2.10;99.90;;;;;;5032931;28;20507;-70
2023/03/10 08:53:38;;;;;;;22.67;18.35;;;2.10;99.90;;;;;;5026351;28;20334;-71
2023/03/10 08:56:05;;;;;;;23.33;18.52;;;2.10;99.90;;;;;;5029999;28;20081;-71
2023/03/10 08:58:31;;;;;;;23.92;18.58;;;2.20;99.90;;;;;;5021324;28;20068;-67
2023/03/10 09:00:57;;;;;;;21.83;18.13;;;2.20;99.90;;;;;;5012903;28;20064;-68
2023/03/10 09:03:22;;;;;;;23.20;18.88;;;2.10;99.90;;;;;;5013759;28;20057;-68
2023/03/10 09:05:49;;;;;;;24.15;19.65;;;2.20;99.90;;;;;;5030740;28;20034;-68
2023/03/10 09:08:15;;;;;;;21.58;18.80;;;2.20;99.90;;;;;;5018183;28;20089;-67
2023/03/10 09:10:43;;;;;;;23.63;20.15;;;2.20;99.90;;;;;;5017128;28;20034;-68
2023/03/10 09:13:10;;;;;;;23.63;18.52;;;2.20;99.90;;;;;;5025598;28;20081;-69
2023/03/10 09:15:39;;;;;;;24.48;19.80;;;2.20;99.90;;;;;;5025198;28;20092;-69
2023/03/10 09:18:10;;;;;;;22.83;18.17;;;2.30;99.90;;;;;;5018085;28;20046;-70
2023/03/10 09:20:38;;;;;;;23.13;18.98;;;2.30;99.90;;;;;;5024513;28;20029;-69
2023/03/10 09:23:04;;;;;;;23.33;18.92;;;2.30;99.90;;;;;;5025687;28;20140;-70
2023/03/10 09:25:30;;;;;;;23.48;18.85;;;2.30;99.90;;;;;;5033819;28;20038;-69
2023/03/10 09:27:56;;;;;;;22.05;18.20;;;2.30;99.90;;;;;;5029944;28;20040;-70
2023/03/10 09:30:22;;;;;;;22.15;18.58;;;2.30;99.90;;;;;;5031176;28;20038;-69
2023/03/10 09:32:48;;;;;;;22.95;18.40;;;2.30;99.90;;;;;;5016835;28;20038;-68
2023/03/10 09:35:14;;;;;;;21.70;17.98;;;2.30;99.90;;;;;;5013286;28;20033;-68
2023/03/10 09:37:40;;;;;;;22.35;19.17;;;2.40;99.90;;;;;;5023592;28;20045;-69
2023/03/10 09:40:08;;;;;;;22.27;18.75;;;2.30;99.90;;;;;;5027113;28;20045;-70
2023/03/10 09:42:47;;;;;;;23.20;18.02;;;2.30;99.90;;;;;;5031746;28;20084;-70
2023/03/10 09:45:39;;;;;;;24.50;19.60;;;2.30;99.90;;;;;;5029030;28;20377;-70
2023/03/10 09:48:24;;;;;;;22.77;18.23;;;2.30;99.90;;;;;;5021626;28;20175;-70
2023/03/10 09:50:51;;;;;;;22.20;19.02;;;2.30;99.90;;;;;;5012155;28;20481;-68
2023/03/10 09:53:27;;;;;;;23.15;19.45;;;2.30;99.90;;;;;;5017517;28;20042;-69
2023/03/10 09:55:53;;;;;;;24.00;19.48;;;2.40;99.90;;;;;;5024325;28;20116;-70
2023/03/10 09:58:42;;;;;;;23.80;19.70;;;2.30;99.90;;;;;;5025961;28;20492;-69
2023/03/10 10:01:21;;;;;;;23.02;18.63;;;2.30;99.90;;;;;;5028745;28;20049;-68
2023/03/10 10:04:03;;;;;;;23.40;19.58;;;2.30;99.90;;;;;;5030707;28;20064;-70
2023/03/10 10:06:36;;;;;;;23.10;18.52;;;2.30;99.90;;;;;;5021461;28;20064;-69
2023/03/10 10:09:21;;;;;;;23.05;18.92;;;2.30;99.90;;;;;;5026055;28;20258;-68
2023/03/10 10:11:46;;;;;;;25.27;20.48;;;2.30;99.90;;;;;;5016477;28;20091;-68
2023/03/10 10:14:27;;;;;;;26.85;21.23;;;2.30;99.90;;;;;;5025902;28;20033;-68
2023/03/10 10:17:14;;;;;;;26.85;21.05;;;2.30;99.90;;;;;;5021391;28;20072;-69
2023/03/10 10:19:41;;;;;;;26.38;21.08;;;2.30;99.90;;;;;;5014207;28;20135;-69
2023/03/10 10:22:26;;;;;;;27.33;21.00;;;2.30;99.90;;;;;;5025959;28;20504;-68
2023/03/10 10:25:01;;;;;;;25.23;19.73;;;2.30;99.90;;;;;;5024386;28;20045;-68
2023/03/10 10:27:29;;;;;;;28.85;21.73;;;2.30;99.90;;;;;;5025881;28;20044;-67
2023/03/10 10:29:57;;;;;;;26.85;20.40;;;2.30;99.90;;;;;;5027252;28;20041;-68
2023/03/10 10:32:23;;;;;;;28.00;22.23;;;2.30;99.90;;;;;;5022257;28;20064;-68
2023/03/10 10:34:49;;;;;;;28.67;21.80;;;2.20;99.90;;;;;;5025538;28;20071;-68
2023/03/10 10:37:25;;;;;;;28.10;21.85;;;2.30;99.90;;;;;;5030344;28;20045;-68
2023/03/10 10:39:53;;;;;;;28.70;21.83;;;2.20;99.90;;;;;;5015217;28;20052;-67
2023/03/10 10:42:28;;;;;;;29.85;22.67;;;2.20;99.90;;;;;;5023958;28;20052;-68
2023/03/10 10:45:24;;;;;;;29.00;21.63;;;2.20;99.90;;;;;;5019802;28;20080;-67
2023/03/10 10:47:51;;;;;;;28.67;21.48;;;2.20;99.90;;;;;;5012826;28;20048;-67
2023/03/10 10:50:25;;;;;;;26.20;20.27;;;2.20;99.90;;;;;;5023212;28;20045;-67
2023/03/10 10:53:15;;;;;;;29.98;22.27;;;2.20;99.90;;;;;;5020031;28;20048;-68
2023/03/10 10:55:43;;;;;;;27.83;21.73;;;2.20;99.90;;;;;;5023210;28;20458;-68
2023/03/10 10:58:32;;;;;;;29.10;21.85;;;2.20;99.90;;;;;;5026377;28;20049;-67
2023/03/10 11:01:01;;;;;;;28.58;21.55;;;2.20;99.90;;;;;;5020225;28;20103;-67
2023/03/10 11:03:47;;;;;;;29.40;22.27;;;2.20;99.90;;;;;;5027665;28;20045;-67
2023/03/10 11:06:26;;;;;;;29.92;22.50;;;2.20;99.90;;;;;;5023748;28;21390;-67
2023/03/10 11:09:11;;;;;;;30.88;22.15;;;2.20;99.90;;;;;;5025838;28;20042;-67
2023/03/10 11:11:54;;;;;;;28.90;21.58;;;2.30;99.90;;;;;;5027867;28;20041;-68
2023/03/10 11:14:30;;;;;;;27.42;21.20;;;2.30;99.90;;;;;;5022328;28;20045;-67
2023/03/10 11:17:05;;;;;;;31.08;23.15;;;2.30;99.90;;;;;;5027322;28;20505;-67
2023/03/10 11:19:50;;;;;;;28.70;20.92;;;2.30;99.90;;;;;;5027419;28;20049;-67
2023/03/10 11:22:45;;;;;;;29.75;22.02;;;2.30;99.90;;;;;;5021147;28;20053;-69
2023/03/10 11:25:46;;;;;;;31.45;22.95;;;2.20;99.90;;;;;;5025783;28;20443;-67
2023/03/10 11:28:33;;;;;;;31.45;21.92;;;2.30;99.90;;;;;;5024663;28;20083;-68
2023/03/10 11:31:21;;;;;;;29.90;21.55;;;2.30;99.90;;;;;;5022371;28;20083;-71
2023/03/10 11:33:52;;;;;;;28.17;20.73;;;2.30;99.90;;;;;;5020803;28;20046;-70
2023/03/10 11:36:59;;;;;;;27.60;21.48;;;2.20;99.90;;;;;;5025569;28;20500;-72
2023/03/10 11:40:01;;;;;;;28.38;20.40;;;2.30;99.90;;;;;;5027640;28;20053;-69
2023/03/10 11:42:40;;;;;;;28.90;21.13;;;2.30;99.90;;;;;;5022749;28;20058;-69
2023/03/10 11:45:11;;;;;;;;;;;2.30;99.90;;;;;;5019628;28;20111;-70
2023/03/10 11:47:56;;;;;;;26.27;19.33;;;2.30;99.90;;;;;;5017802;28;19917;-68
2023/03/10 11:50:30;;;;;;;28.35;20.38;;;2.30;99.90;;;;;;5021322;28;20120;-68
2023/03/10 11:53:03;;;;;;;25.67;19.10;;;2.30;99.90;;;;;;5027908;28;20136;-68
2023/03/10 11:55:30;;;;;;;26.77;20.65;;;2.30;99.90;;;;;;5025190;28;20042;-68
2023/03/10 11:58:00;;;;;;;27.90;20.17;;;2.30;99.90;;;;;;5029352;28;20057;-69
2023/03/10 12:00:34;;;;;;;26.17;19.80;;;2.30;99.90;;;;;;5023965;28;20147;-68
2023/03/10 12:03:27;;;;;;;24.90;18.77;;;2.30;99.90;;;;;;5023522;28;20125;-69
2023/03/10 12:06:01;;;;;;;26.80;19.40;;;2.30;99.90;;;;;;5028834;28;20072;-69
2023/03/10 12:08:34;;;;;;;26.67;19.92;;;2.30;99.90;;;;;;5030812;28;20053;-69
2023/03/10 12:11:03;;;;;;;25.88;19.38;;;2.30;99.90;;;;;;5022402;28;20073;-68
2023/03/10 12:13:41;;;;;;;26.23;19.10;;;2.30;99.90;;;;;;5026634;28;20051;-69
2023/03/10 12:16:17;;;;;;;23.08;18.17;;;2.40;99.90;;;;;;5024775;28;20125;-69
2023/03/10 12:18:43;;;;;;;24.20;18.27;;;2.40;99.90;;;;;;5012830;28;20048;-69
2023/03/10 12:21:16;;;;;;;22.88;17.92;;;2.40;99.90;;;;;;5027408;28;20056;-66
2023/03/10 12:23:47;;;;;;;24.48;18.70;;;2.40;99.90;;;;;;5026267;28;20037;-67
2023/03/10 12:26:14;;;;;;;25.70;19.17;;;2.40;99.90;;;;;;5030485;28;20103;-69
2023/03/10 12:28:40;;;;;;;25.42;19.05;;;2.40;99.90;;;;;;5024031;28;20045;-69
2023/03/10 12:31:30;;;;;;;24.23;19.67;;;2.40;99.90;;;;;;5024160;28;20088;-70
2023/03/10 12:34:17;;;;;;;25.60;19.33;;;2.50;99.90;;;;;;5021236;28;20092;-69
2023/03/10 12:36:44;;;;;;;;;;;2.50;99.90;;;;;;5017581;28;20050;-69
2023/03/10 12:39:41;;;;;;;23.75;18.75;;;2.50;99.90;;;;;;5027535;28;19940;-68
2023/03/10 12:42:28;;;;;;;22.65;18.20;;;2.50;99.90;;;;;;5020881;28;20049;-66
2023/03/10 12:45:06;;;;;;;23.85;18.17;;;2.50;99.90;;;;;;5015782;28;20485;-68
2023/03/10 12:47:57;;;;;;;23.13;17.98;;;2.50;99.90;;;;;;5023151;28;20045;-69
2023/03/10 12:50:32;;;;;;;21.70;16.88;;;2.50;99.90;;;;;;5024332;28;20061;-69